ART weather

Watertown International Airport
Watertown, New York, United States

Public forecast

Using degrees Fahrenheit for public forecast. Weather courtesy of forecast.io.

Current aviation weather report (METAR) for Watertown International Airport

Retrieved 2020/01/20 02:19 UTC (7 minutes ago):

KART 200219Z AUTO 34008KT 10SM OVC029 M08/M13 A3010 RMK AO2 T10831128

Aviation forecast (TAF) for Watertown International Airport

Retrieved 2020-01-20 00:45 UTC (2 hours ago):

TAF KART 192341Z 2000/2024 32008KT P6SM VCSH OVC035 FM200500 35007KT P6SM BKN035 FM201000 00000KT P6SM SCT200 FM202000 25010KT P6SM FEW250